createdAt,value
2023-02-01T06:40:55.711Z,97142.20
2023-02-01T06:43:24.888Z,97158.60
2023-02-01T06:45:53.308Z,97173.80
2023-02-01T06:48:37.480Z,97175.20
2023-02-01T06:51:06.145Z,97177.60
2023-02-01T06:53:34.369Z,97171.60
2023-02-01T06:56:03.634Z,97171.40
2023-02-01T06:58:33.164Z,97172.80
2023-02-01T07:01:08.589Z,97172.40
2023-02-01T07:03:37.100Z,97173.60
2023-02-01T07:06:05.710Z,97168.00
2023-02-01T07:08:35.143Z,97175.40
2023-02-01T07:11:08.379Z,97177.60
2023-02-01T07:13:36.833Z,97174.80
2023-02-01T07:16:07.022Z,97174.20
2023-02-01T07:18:35.227Z,97168.00
2023-02-01T07:21:03.552Z,97181.00
2023-02-01T07:23:31.810Z,97171.00
2023-02-01T07:26:01.871Z,97170.40
2023-02-01T07:28:31.549Z,97166.80
2023-02-01T07:31:13.112Z,97169.80
2023-02-01T07:33:41.242Z,97172.80
2023-02-01T07:36:15.322Z,97176.60
2023-02-01T07:38:43.682Z,97175.00
2023-02-01T07:41:12.344Z,97166.40
2023-02-01T07:43:41.062Z,97181.80
2023-02-01T07:46:09.230Z,97169.80
2023-02-01T07:48:37.401Z,97180.80
2023-02-01T07:51:10.127Z,97176.80
2023-02-01T07:53:38.436Z,97176.20
2023-02-01T07:56:14.551Z,97173.60
2023-02-01T07:58:43.334Z,97179.00
2023-02-01T08:01:22.293Z,97177.40
2023-02-01T08:03:52.062Z,97178.80
2023-02-01T08:06:20.949Z,97176.00
2023-02-01T08:08:50.395Z,97169.00
2023-02-01T08:11:19.572Z,97161.60
2023-02-01T08:13:48.024Z,97174.40
2023-02-01T08:16:17.474Z,97171.80
2023-02-01T08:18:46.212Z,97165.40
2023-02-01T08:21:19.658Z,97173.00
2023-02-01T08:23:48.136Z,97171.60
2023-02-01T08:26:20.400Z,97180.00
2023-02-01T08:28:54.516Z,97174.40
2023-02-01T08:31:24.236Z,97181.00
2023-02-01T08:33:54.626Z,97172.00
2023-02-01T08:36:23.898Z,97184.60
2023-02-01T08:38:52.570Z,97181.80
2023-02-01T08:41:24.014Z,97189.40
2023-02-01T08:43:53.989Z,97195.80
2023-02-01T08:46:22.894Z,97203.60
2023-02-01T08:48:53.735Z,97202.80
2023-02-01T08:51:23.252Z,97208.40
2023-02-01T08:53:51.699Z,97211.80
2023-02-01T08:56:40.830Z,97213.20
2023-02-01T08:59:42.513Z,97217.00
2023-02-01T09:03:23.303Z,97213.40
2023-02-01T09:07:10.492Z,97209.80
2023-02-01T09:09:39.596Z,97211.40
2023-02-01T09:12:08.103Z,97213.00
2023-02-01T09:14:36.480Z,97207.00
2023-02-01T09:17:21.380Z,97206.80
2023-02-01T09:23:18.814Z,97206.40
2023-02-01T09:25:51.456Z,97200.40
2023-02-01T09:28:19.937Z,97195.00
2023-02-01T09:30:48.438Z,97197.00
2023-02-01T09:37:36.371Z,97193.00
2023-02-01T09:40:36.794Z,97187.00
2023-02-01T09:43:48.356Z,97184.60
2023-02-01T09:46:26.112Z,97181.60
2023-02-01T09:49:21.691Z,97187.60
2023-02-01T09:51:51.207Z,97182.20
2023-02-01T09:54:21.078Z,97179.60
2023-02-01T09:57:02.046Z,97182.40
2023-02-01T10:00:02.078Z,97181.20
2023-02-01T10:02:41.123Z,97183.60
2023-02-01T10:05:16.355Z,97180.60
2023-02-01T10:07:55.461Z,97190.20
2023-02-01T10:10:41.731Z,97194.60
2023-02-01T10:13:51.524Z,97200.80
2023-02-01T10:16:25.991Z,97204.60
2023-02-01T10:19:39.478Z,97201.40
2023-02-01T10:22:11.225Z,97209.20
2023-02-01T10:24:50.324Z,97206.00
2023-02-01T10:27:21.425Z,97210.20
2023-02-01T10:30:23.042Z,97204.00
2023-02-01T10:32:58.203Z,97204.40
2023-02-01T10:35:31.164Z,97209.80
2023-02-01T10:38:02.736Z,97216.20
2023-02-01T10:40:30.710Z,97204.40
2023-02-01T10:43:00.243Z,97197.20
2023-02-01T10:45:32.165Z,97193.00
2023-02-01T10:48:01.052Z,97192.20
2023-02-01T10:50:36.056Z,97191.00
2023-02-01T10:53:07.650Z,97192.60
2023-02-01T10:56:07.053Z,97190.00
2023-02-01T10:58:37.555Z,97182.20
2023-02-01T11:01:09.324Z,97181.20
2023-02-01T11:03:57.109Z,97182.60
2023-02-01T11:06:34.866Z,97181.80
2023-02-01T11:09:15.733Z,97182.20
2023-02-01T11:11:49.793Z,97185.20
2023-02-01T11:14:19.873Z,97182.80
2023-02-01T11:17:12.098Z,97181.20
2023-02-01T11:19:41.111Z,97178.00
2023-02-01T11:22:10.418Z,97173.40
2023-02-01T11:24:40.161Z,97174.60
2023-02-01T11:27:22.048Z,97173.20
2023-02-01T11:29:57.316Z,97176.60
2023-02-01T11:32:25.832Z,97174.20
2023-02-01T11:35:05.093Z,97177.40
2023-02-01T11:37:38.175Z,97173.80
2023-02-01T11:40:28.999Z,97175.00
2023-02-01T11:43:08.299Z,97177.80
2023-02-01T11:45:38.516Z,97176.80
2023-02-01T11:48:14.989Z,97182.60
2023-02-01T11:50:52.324Z,97181.00
2023-02-01T11:53:25.021Z,97178.60
2023-02-01T11:56:19.469Z,97168.80
2023-02-01T11:59:03.742Z,97157.60
2023-02-01T12:01:47.904Z,97162.20
2023-02-01T12:04:42.829Z,97160.40
2023-02-01T12:07:15.854Z,97160.40
2023-02-01T12:10:05.589Z,97162.40
2023-02-01T12:12:51.996Z,97158.40
2023-02-01T12:15:48.345Z,97150.80
2023-02-01T12:18:28.666Z,97146.00
2023-02-01T12:21:07.299Z,97136.40
2023-02-01T12:23:42.167Z,97137.60
2023-02-01T12:26:29.079Z,97137.00
2023-02-01T12:29:15.527Z,97136.60
2023-02-01T12:31:55.712Z,97136.20
2023-02-01T12:34:49.946Z,97135.80
2023-02-01T12:37:45.509Z,97136.40
2023-02-01T12:40:13.677Z,97136.00
2023-02-01T12:42:44.983Z,97138.60
2023-02-01T12:45:29.028Z,97138.60
2023-02-01T12:48:07.654Z,97135.40
2023-02-01T12:50:49.082Z,97133.40
2023-02-01T12:53:31.918Z,97137.80
2023-02-01T12:56:08.165Z,97137.60
2023-02-01T12:58:53.539Z,97137.60
2023-02-01T13:01:44.976Z,97138.20
2023-02-01T13:04:21.172Z,97135.00
2023-02-01T13:06:55.528Z,97140.60
2023-02-01T13:09:46.843Z,97140.00
2023-02-01T13:12:22.486Z,97134.80
2023-02-01T13:14:55.987Z,97129.40
2023-02-01T13:17:26.213Z,97129.20
2023-02-01T13:20:18.451Z,97128.60
2023-02-01T13:23:00.764Z,97124.20
2023-02-01T13:25:51.570Z,97127.20
2023-02-01T13:28:19.731Z,97126.20
2023-02-01T13:31:19.148Z,97129.00
2023-02-01T13:34:24.504Z,97122.60
2023-02-01T13:37:19.047Z,97127.00
2023-02-01T13:40:05.479Z,97118.20
2023-02-01T13:42:45.320Z,97112.80
2023-02-01T13:45:18.872Z,97112.80
2023-02-01T13:47:48.502Z,97106.60
2023-02-01T13:50:26.122Z,97098.40
2023-02-01T13:53:02.043Z,97090.40
2023-02-01T13:55:37.230Z,97087.80
2023-02-01T13:58:35.725Z,97084.20
2023-02-01T14:01:22.077Z,97087.60
2023-02-01T14:04:06.701Z,97088.00
2023-02-01T14:06:41.064Z,97082.40
2023-02-01T14:09:09.293Z,97085.00
2023-02-01T14:11:51.462Z,97083.00
2023-02-01T14:14:19.529Z,97080.40
2023-02-01T14:16:53.412Z,97079.60
2023-02-01T14:19:26.023Z,97080.00
2023-02-01T14:22:01.668Z,97078.20
2023-02-01T14:24:35.984Z,97073.00
2023-02-01T14:27:17.367Z,97074.80
2023-02-01T14:29:53.270Z,97075.20
2023-02-01T14:32:22.799Z,97076.40
2023-02-01T14:34:57.266Z,97075.80
2023-02-01T14:37:27.135Z,97079.00
2023-02-01T14:40:26.399Z,97083.00
2023-02-01T14:42:54.988Z,97081.40
2023-02-01T14:45:23.900Z,97088.00
2023-02-01T14:47:55.486Z,97087.60
2023-02-01T14:50:23.586Z,97084.20
2023-02-01T14:53:09.975Z,97088.80
2023-02-01T14:56:02.656Z,97089.40
2023-02-01T14:58:37.714Z,97087.80
2023-02-01T15:01:07.013Z,97083.20
2023-02-01T15:03:46.982Z,97082.80
2023-02-01T15:06:29.079Z,97095.00
2023-02-01T15:09:17.945Z,97094.00
2023-02-01T15:12:13.486Z,97094.60
2023-02-01T15:14:49.945Z,97090.60
2023-02-01T15:17:24.339Z,97090.00
2023-02-01T15:19:56.429Z,97090.40
2023-02-01T15:22:24.600Z,97090.80
2023-02-01T15:24:59.738Z,97087.60
2023-02-01T15:27:28.969Z,97086.20
2023-02-01T15:30:09.967Z,97082.20
2023-02-01T15:32:39.734Z,97084.80
2023-02-01T15:35:47.204Z,97081.40
2023-02-01T15:38:33.310Z,97079.40
2023-02-01T15:41:19.865Z,97078.40
2023-02-01T15:43:56.880Z,97083.80
2023-02-01T15:46:34.815Z,97067.00
2023-02-01T15:49:03.818Z,97078.80
2023-02-01T15:51:33.844Z,97078.40
2023-02-01T15:54:08.434Z,97076.80
2023-02-01T15:56:42.137Z,97077.60
2023-02-01T15:59:20.795Z,97085.20
2023-02-01T16:01:49.233Z,97085.60
2023-02-01T16:04:19.125Z,97083.00
2023-02-01T16:06:49.147Z,97089.80
2023-02-01T16:09:19.062Z,97092.40
2023-02-01T16:12:03.058Z,97100.40
2023-02-01T16:14:31.052Z,97102.00
2023-02-01T16:16:59.547Z,97097.80
2023-02-01T16:19:29.501Z,97093.80
2023-02-01T16:22:00.355Z,97092.40
2023-02-01T16:24:28.904Z,97086.20
2023-02-01T16:26:57.150Z,97089.00
2023-02-01T16:29:25.343Z,97087.00
2023-02-01T16:31:53.474Z,97082.80
2023-02-01T16:34:21.989Z,97070.60
2023-02-01T16:36:54.686Z,97074.00
2023-02-01T16:39:22.773Z,97074.80
2023-02-01T16:41:51.434Z,97080.20
2023-02-01T16:44:23.037Z,97083.20
2023-02-01T16:46:51.196Z,97084.80
2023-02-01T16:49:24.372Z,97084.40
2023-02-01T16:51:56.465Z,97079.80
2023-02-01T16:54:25.008Z,97081.40
2023-02-01T16:56:53.250Z,97085.00
2023-02-01T16:59:21.524Z,97074.20
2023-02-01T17:01:49.458Z,97071.60
2023-02-01T17:04:18.548Z,97072.00
2023-02-01T17:06:48.412Z,97071.80
2023-02-01T17:09:16.641Z,97068.20
2023-02-01T17:11:44.876Z,97068.40
2023-02-01T17:14:18.234Z,97072.60
2023-02-01T17:16:47.644Z,97066.20
2023-02-01T17:19:18.326Z,97069.80
2023-02-01T17:21:49.873Z,97066.80
2023-02-01T17:24:19.188Z,97065.40
2023-02-01T17:26:47.333Z,97061.40
2023-02-01T17:29:15.397Z,97060.00
2023-02-01T17:31:45.328Z,97057.80
2023-02-01T17:34:15.801Z,97063.40
2023-02-01T17:36:44.215Z,97062.20
2023-02-01T17:39:32.167Z,97062.00
2023-02-01T17:42:00.742Z,97073.20
2023-02-01T17:44:28.798Z,97062.60
2023-02-01T17:46:58.721Z,97063.20
2023-02-01T17:49:29.006Z,97066.40
2023-02-01T17:51:57.828Z,97064.00
2023-02-01T17:54:26.548Z,97067.80
2023-02-01T17:56:54.825Z,97063.00
2023-02-01T17:59:27.091Z,97064.80
2023-02-01T18:02:00.934Z,97061.20
2023-02-01T18:04:29.231Z,97058.80
2023-02-01T18:07:27.044Z,97062.60
2023-02-01T18:09:56.718Z,97064.80
2023-02-01T18:12:26.660Z,97075.60
2023-02-01T18:14:54.783Z,97073.20
2023-02-01T18:17:22.878Z,97069.40
2023-02-01T18:19:51.091Z,97071.40
2023-02-01T18:22:20.179Z,97065.60
2023-02-01T18:24:48.543Z,97065.00
2023-02-01T18:27:19.108Z,97072.20
2023-02-01T18:29:47.200Z,97075.20
2023-02-01T18:32:15.532Z,97073.80
2023-02-01T18:34:43.746Z,97077.60
2023-02-01T18:37:11.861Z,97070.80
2023-02-01T18:39:40.243Z,97066.60
2023-02-01T18:42:11.210Z,97063.20
2023-02-01T18:44:39.189Z,97059.40
2023-02-01T18:47:07.716Z,97052.80
2023-02-01T18:49:37.499Z,97046.00
2023-02-01T18:52:06.827Z,97045.40
2023-02-01T18:54:34.981Z,97045.00
2023-02-01T18:57:03.536Z,97044.80
2023-02-01T18:59:31.665Z,97043.80
2023-02-01T19:01:59.679Z,97043.40
2023-02-01T19:04:27.671Z,97041.80
2023-02-01T19:06:55.610Z,97043.60
2023-02-01T19:09:23.563Z,97044.20
2023-02-01T19:11:51.763Z,97037.40
2023-02-01T19:14:19.843Z,97033.80
2023-02-01T19:16:50.617Z,97046.20
2023-02-01T19:19:18.932Z,97052.20
2023-02-01T19:21:47.063Z,97044.20
2023-02-01T19:24:15.039Z,97038.20
2023-02-01T19:26:43.771Z,97038.60
2023-02-01T19:29:12.003Z,97045.60
2023-02-01T19:31:40.306Z,97052.40
2023-02-01T19:34:11.416Z,97052.00
2023-02-01T19:36:42.640Z,97056.00
2023-02-01T19:39:10.929Z,97064.00
2023-02-01T19:41:40.229Z,97059.40
2023-02-01T19:44:08.646Z,97055.80
2023-02-01T19:46:36.825Z,97057.80
2023-02-01T19:49:05.569Z,97049.20
2023-02-01T19:51:34.558Z,97053.20
2023-02-01T19:54:02.733Z,97051.80
2023-02-01T19:56:30.787Z,97049.60
2023-02-01T19:58:59.027Z,97052.80
2023-02-01T20:01:29.607Z,97054.40
2023-02-01T20:04:06.029Z,97053.00
2023-02-01T20:06:37.795Z,97056.20
2023-02-01T20:09:05.958Z,97057.60
2023-02-01T20:11:34.204Z,97057.40
2023-02-01T20:14:02.451Z,97058.20
2023-02-01T20:16:30.604Z,97051.80
2023-02-01T20:18:58.551Z,97050.60
2023-02-01T20:21:27.261Z,97043.80
2023-02-01T20:23:55.532Z,97040.80
2023-02-01T20:26:25.550Z,97041.00
2023-02-01T20:28:54.991Z,97044.20
2023-02-01T20:31:25.233Z,97045.40
2023-02-01T20:33:53.494Z,97043.20
2023-02-01T20:36:21.616Z,97044.00
2023-02-01T20:38:49.638Z,97041.40
2023-02-01T20:41:18.015Z,97042.00
2023-02-01T20:43:46.398Z,97038.80
2023-02-01T20:46:14.636Z,97040.00
2023-02-01T20:48:46.788Z,97039.80
2023-02-01T20:51:15.997Z,97033.20
2023-02-01T20:53:43.978Z,97036.60
2023-02-01T20:56:13.032Z,97028.80
2023-02-01T20:58:41.388Z,97024.80
2023-02-01T21:01:09.621Z,97027.20
2023-02-01T21:03:38.043Z,97022.20
2023-02-01T21:06:06.933Z,97022.00
2023-02-01T21:08:34.963Z,97033.60
2023-02-01T21:11:08.227Z,97033.80
2023-02-01T21:13:44.180Z,97036.00
2023-02-01T21:16:13.662Z,97034.40
2023-02-01T21:18:41.655Z,97034.00
2023-02-01T21:21:11.919Z,97032.20
2023-02-01T21:23:45.111Z,97036.00
2023-02-01T21:26:17.995Z,97044.20
2023-02-01T21:28:46.073Z,97037.80
2023-02-01T21:31:17.170Z,97040.60
2023-02-01T21:33:47.085Z,97046.20
2023-02-01T21:36:19.540Z,97046.80
2023-02-01T21:38:50.164Z,97043.80
2023-02-01T21:41:42.020Z,97043.60
2023-02-01T21:44:10.259Z,97044.40
2023-02-01T21:46:38.333Z,97038.00
2023-02-01T21:49:07.483Z,97037.00
2023-02-01T21:51:37.992Z,97041.00
2023-02-01T21:54:09.811Z,97036.80
2023-02-01T21:56:38.140Z,97037.40
2023-02-01T21:59:06.982Z,97036.20
2023-02-01T22:01:35.061Z,97038.00
2023-02-01T22:04:03.572Z,97032.40
2023-02-01T22:06:37.146Z,97035.60
2023-02-01T22:09:05.462Z,97032.20
2023-02-01T22:11:33.994Z,97035.80
2023-02-01T22:14:02.379Z,97037.60
2023-02-01T22:16:31.688Z,97040.80
2023-02-01T22:19:20.523Z,97042.40
2023-02-01T22:21:48.903Z,97039.80
2023-02-01T22:24:18.148Z,97041.40
2023-02-01T22:26:46.316Z,97040.40
2023-02-01T22:29:15.066Z,97041.40
2023-02-01T22:31:43.215Z,97040.40
2023-02-01T22:34:11.880Z,97040.20
2023-02-01T22:36:40.228Z,97042.40
2023-02-01T22:39:08.677Z,97035.20
2023-02-01T22:41:36.846Z,97041.00
2023-02-01T22:44:05.431Z,97040.20
2023-02-01T22:46:33.603Z,97036.60
2023-02-01T22:49:01.990Z,97042.00
2023-02-01T22:51:31.590Z,97038.20
2023-02-01T22:54:02.314Z,97035.60
2023-02-01T22:56:37.294Z,97034.20
2023-02-01T22:59:06.895Z,97036.20
2023-02-01T23:01:35.023Z,97038.40
2023-02-01T23:04:05.351Z,97036.40
2023-02-01T23:06:33.813Z,97035.80
2023-02-01T23:09:13.863Z,97035.80
2023-02-01T23:11:42.331Z,97038.40
2023-02-01T23:14:10.923Z,97032.40
2023-02-01T23:16:39.310Z,97038.00
2023-02-01T23:19:07.472Z,97039.20
2023-02-01T23:21:35.455Z,97041.00
2023-02-01T23:24:04.840Z,97042.00
2023-02-01T23:26:33.109Z,97043.80
2023-02-01T23:29:01.407Z,97044.40
2023-02-01T23:31:30.855Z,97042.40
2023-02-01T23:34:00.116Z,97041.80
2023-02-01T23:36:28.713Z,97042.80
2023-02-01T23:38:57.496Z,97039.60
2023-02-01T23:41:27.693Z,97040.80
2023-02-01T23:43:58.528Z,97040.00
2023-02-01T23:46:37.947Z,97030.60
2023-02-01T23:49:07.195Z,97031.60
2023-02-01T23:51:35.112Z,97031.20
2023-02-01T23:54:03.197Z,97029.20
2023-02-01T23:56:33.962Z,97021.20
2023-02-01T23:59:03.791Z,97023.40
